| time (UTC) | temp C | wind direction | speed KPH | gust KPH | rain 1hr cm | rain 24hr cm | rain mn cm | humidity % | barometer mb |
| 20260502152006 | 13 | 305 | 4.8 | 11.3 | 0.00 | 0.00 | 0.00 | 40 | 1021.9 |
| 20260502151508 | 13 | 252 | 4.8 | 11.3 | 0.00 | 0.00 | 0.00 | 39 | 1021.9 |
| 20260502151008 | 12 | 321 | 6.4 | 11.3 | 0.00 | 0.00 | 0.00 | 41 | 1022.0 |
| 20260502150504 | 12 | 300 | 3.2 | 11.3 | 0.00 | 0.00 | 0.00 | 43 | 1022.0 |
| 20260502130504 | 7 | 309 | 0.0 | 3.2 | 0.00 | 0.00 | 0.00 | 64 | 1022.0 |
| 20260502123510 | 4 | 309 | 0.0 | 1.6 | 0.00 | 0.00 | 0.00 | 73 | 1022.1 |
| 20260502123022 | 3 | 309 | 0.0 | 1.6 | 0.00 | 0.00 | 0.00 | 74 | 1022.1 |
| 20260502122507 | 3 | 309 | 0.0 | 0.0 | 0.00 | 0.00 | 0.00 | 78 | 1022.1 |
| 20260502122015 | 2 | 309 | 0.0 | 0.0 | 0.00 | 0.00 | 0.00 | 82 | 1022.0 |
| 20260502121522 | 1 | 309 | 0.0 | 0.0 | 0.00 | 0.00 | 0.00 | 83 | 1022.0 |
| 20260502121004 | 1 | 309 | 0.0 | 0.0 | 0.00 | 0.00 | 0.00 | 84 | 1021.9 |
| 20260502120511 | 0 | 309 | 0.0 | 0.0 | 0.00 | 0.00 | 0.00 | 83 | 1021.8 |
| 20260502115506 | 0 | 309 | 0.0 | 0.0 | 0.00 | 0.00 | 0.00 | 82 | 1021.8 |
| 20260502115007 | 1 | 309 | 0.0 | 0.0 | 0.00 | 0.00 | 0.00 | 81 | 1021.8 |
| 20260502114517 | 1 | 309 | 0.0 | 0.0 | 0.00 | 0.00 | 0.00 | 81 | 1021.8 |
| 20260502114007 | 1 | 309 | 0.0 | 3.2 | 0.00 | 0.00 | 0.00 | 81 | 1021.7 |
| 20260502113508 | 1 | 309 | 0.0 | 3.2 | 0.00 | 0.00 | 0.00 | 81 | 1021.7 |
| 20260502113016 | 1 | 309 | 0.0 | 3.2 | 0.00 | 0.00 | 0.00 | 80 | 1021.7 |
| 20260502112504 | 1 | 309 | 0.0 | 3.2 | 0.00 | 0.00 | 0.00 | 80 | 1021.6 |
| 20260502112011 | 1 | 309 | 0.0 | 3.2 | 0.00 | 0.00 | 0.00 | 79 | 1021.6 |
| 20260502111506 | 1 | 309 | 1.6 | 1.6 | 0.00 | 0.00 | 0.00 | 78 | 1021.6 |
| 20260502111003 | 1 | 309 | 0.0 | 0.0 | 0.00 | 0.00 | 0.00 | 77 | 1021.5 |
| 20260502110503 | 1 | 309 | 0.0 | 0.0 | 0.00 | 0.00 | 0.00 | 77 | 1021.5 |
| 20260502110011 | 2 | 309 | 0.0 | 0.0 | 0.00 | 0.00 | 0.00 | 76 | 1021.5 |
| 20260502105504 | 2 | 309 | 0.0 | 3.2 | 0.00 | 0.00 | 0.00 | 76 | 1021.4 |
| 20260502105004 | 2 | 309 | 0.0 | 4.8 | 0.00 | 0.00 | 0.00 | 76 | 1021.4 |
| 20260502104508 | 2 | 309 | 1.6 | 4.8 | 0.00 | 0.00 | 0.00 | 76 | 1021.4 |
| 20260502104006 | 2 | 309 | 1.6 | 4.8 | 0.00 | 0.00 | 0.00 | 76 | 1021.5 |
| 20260502103504 | 2 | 318 | 1.6 | 4.8 | 0.00 | 0.00 | 0.00 | 76 | 1021.5 |
| 20260502103019 | 2 | 318 | 1.6 | 4.8 | 0.00 | 0.00 | 0.00 | 76 | 1021.4 |
| 20260502102509 | 2 | 320 | 1.6 | 3.2 | 0.00 | 0.00 | 0.00 | 76 | 1021.4 |
| 20260502102005 | 2 | 320 | 1.6 | 3.2 | 0.00 | 0.00 | 0.00 | 77 | 1021.4 |
| 20260502101541 | 2 | 320 | 1.6 | 1.6 | 0.00 | 0.00 | 0.00 | 78 | 1021.3 |
| 20260502101004 | 1 | 320 | 1.6 | 1.6 | 0.00 | 0.00 | 0.00 | 78 | 1021.3 |
| 20260502100504 | 1 | 320 | 1.6 | 3.2 | 0.00 | 0.00 | 0.00 | 79 | 1021.2 |
| 20260502091514 | 2 | 334 | 1.6 | 3.2 | 0.00 | 0.00 | 0.00 | 76 | 1021.1 |
| 20260502091008 | 2 | 334 | 0.0 | 3.2 | 0.00 | 0.00 | 0.00 | 76 | 1021.1 |
| 20260502090504 | 2 | 334 | 1.6 | 3.2 | 0.00 | 0.00 | 0.00 | 76 | 1021.0 |
| 20260502071514 | 2 | 17 | 0.0 | 1.6 | 0.00 | 0.00 | 0.00 | 71 | 1021.1 |
| 20260502071011 | 2 | 17 | 0.0 | 1.6 | 0.00 | 0.00 | 0.00 | 71 | 1021.1 |
| 20260502070505 | 2 | 17 | 0.0 | 0.0 | 0.00 | 0.00 | 0.00 | 71 | 1021.2 |
| 20260502070017 | 2 | 17 | 0.0 | 0.0 | 0.00 | 0.00 | 0.00 | 69 | 1021.2 |
| 20260502065508 | 2 | 17 | 0.0 | 3.2 | 0.00 | 0.00 | 0.00 | 68 | 1021.2 |
| 20260502065007 | 2 | 17 | 0.0 | 3.2 | 0.00 | 0.00 | 0.00 | 68 | 1021.1 |
| 20260502064526 | 2 | 18 | 0.0 | 1.6 | 0.00 | 0.00 | 0.00 | 67 | 1021.1 |
| 20260502064007 | 2 | 17 | 0.0 | 1.6 | 0.00 | 0.00 | 0.00 | 67 | 1021.1 |
| 20260502063506 | 2 | 17 | 0.0 | 0.0 | 0.00 | 0.00 | 0.00 | 66 | 1021.1 |
| 20260502063035 | 2 | 17 | 0.0 | 0.0 | 0.00 | 0.00 | 0.00 | 66 | 1021.1 |
| 20260502062508 | 3 | 18 | 0.0 | 0.0 | 0.00 | 0.00 | 0.00 | 66 | 1021.1 |
| 20260502062007 | 3 | 17 | 0.0 | 0.0 | 0.00 | 0.00 | 0.00 | 66 | 1021.0 |
| 20260502061513 | 3 | 17 | 0.0 | 0.0 | 0.00 | 0.00 | 0.00 | 66 | 1021.0 |
| 20260502061004 | 3 | 17 | 0.0 | 0.0 | 0.00 | 0.00 | 0.00 | 64 | 1020.9 |
| 20260502060504 | 3 | 17 | 0.0 | 0.0 | 0.00 | 0.00 | 0.00 | 63 | 1020.9 |
| 20260502060018 | 3 | 17 | 0.0 | 0.0 | 0.00 | 0.00 | 0.00 | 63 | 1020.9 |
| 20260502055505 | 3 | 17 | 0.0 | 0.0 | 0.00 | 0.00 | 0.00 | 62 | 1020.9 |
| 20260502055009 | 3 | 17 | 0.0 | 3.2 | 0.00 | 0.00 | 0.00 | 61 | 1020.9 |
| 20260502054524 | 4 | 17 | 0.0 | 3.2 | 0.00 | 0.00 | 0.00 | 61 | 1020.9 |
| 20260502054005 | 4 | 17 | 0.0 | 3.2 | 0.00 | 0.00 | 0.00 | 61 | 1020.9 |
| 20260502053513 | 4 | 17 | 0.0 | 3.2 | 0.00 | 0.00 | 0.00 | 60 | 1020.8 |
| 20260502053021 | 4 | 17 | 0.0 | 3.2 | 0.00 | 0.00 | 0.00 | 60 | 1020.8 |
| 20260502052510 | 4 | 17 | 0.0 | 0.0 | 0.00 | 0.00 | 0.00 | 59 | 1020.9 |
| 20260502052009 | 5 | 18 | 0.0 | 1.6 | 0.00 | 0.00 | 0.00 | 58 | 1020.8 |
| 20260502051521 | 5 | 18 | 0.0 | 1.6 | 0.00 | 0.00 | 0.00 | 57 | 1020.8 |
| 20260502051008 | 5 | 17 | 0.0 | 1.6 | 0.00 | 0.00 | 0.00 | 57 | 1020.8 |
| 20260502050509 | 5 | 17 | 0.0 | 1.6 | 0.00 | 0.00 | 0.00 | 57 | 1020.8 |
| 20260502050016 | 5 | 18 | 0.0 | 3.2 | 0.00 | 0.00 | 0.00 | 57 | 1020.8 |
| 20260502045508 | 5 | 17 | 0.0 | 3.2 | 0.00 | 0.00 | 0.00 | 57 | 1020.7 |
| 20260502045006 | 5 | 17 | 0.0 | 3.2 | 0.00 | 0.00 | 0.00 | 57 | 1020.7 |
| 20260502044522 | 5 | 17 | 0.0 | 3.2 | 0.00 | 0.00 | 0.00 | 57 | 1020.7 |
| 20260502044009 | 5 | 18 | 0.0 | 3.2 | 0.00 | 0.00 | 0.00 | 56 | 1020.7 |
| 20260502043506 | 5 | 17 | 0.0 | 3.2 | 0.00 | 0.00 | 0.00 | 56 | 1020.7 |
| 20260502043026 | 5 | 17 | 0.0 | 3.2 | 0.00 | 0.00 | 0.00 | 56 | 1020.7 |
| 20260502042507 | 5 | 17 | 0.0 | 3.2 | 0.00 | 0.00 | 0.00 | 55 | 1020.7 |
| 20260502042007 | 5 | 17 | 0.0 | 3.2 | 0.00 | 0.00 | 0.00 | 55 | 1020.7 |
| 20260502041528 | 5 | 17 | 0.0 | 3.2 | 0.00 | 0.00 | 0.00 | 54 | 1020.7 |
| 20260502041008 | 6 | 17 | 0.0 | 3.2 | 0.00 | 0.00 | 0.00 | 53 | 1020.6 |
| 20260502040511 | 6 | 17 | 0.0 | 3.2 | 0.00 | 0.00 | 0.00 | 52 | 1020.7 |
| 20260502040028 | 6 | 17 | 0.0 | 0.0 | 0.00 | 0.00 | 0.00 | 52 | 1020.6 |
| 20260502035507 | 6 | 18 | 0.0 | 0.0 | 0.00 | 0.00 | 0.00 | 51 | 1020.6 |
| 20260502035004 | 6 | 17 | 0.0 | 0.0 | 0.00 | 0.00 | 0.00 | 51 | 1020.6 |
| 20260502034525 | 6 | 17 | 0.0 | 0.0 | 0.00 | 0.00 | 0.00 | 50 | 1020.7 |
| 20260502034008 | 7 | 17 | 0.0 | 0.0 | 0.00 | 0.00 | 0.00 | 49 | 1020.6 |
| 20260502033504 | 7 | 17 | 0.0 | 0.0 | 0.00 | 0.00 | 0.00 | 49 | 1020.6 |
| 20260502033021 | 7 | 17 | 0.0 | 0.0 | 0.00 | 0.00 | 0.00 | 48 | 1020.6 |
| 20260502032506 | 7 | 17 | 0.0 | 0.0 | 0.00 | 0.00 | 0.00 | 46 | 1020.5 |
| 20260502032008 | 8 | 17 | 0.0 | 0.0 | 0.00 | 0.00 | 0.00 | 45 | 1020.5 |
| 20260502031520 | 8 | 17 | 0.0 | 3.2 | 0.00 | 0.00 | 0.00 | 44 | 1020.5 |
| 20260502031007 | 8 | 17 | 0.0 | 3.2 | 0.00 | 0.00 | 0.00 | 43 | 1020.5 |
| 20260502030507 | 8 | 17 | 1.6 | 4.8 | 0.00 | 0.00 | 0.00 | 43 | 1020.4 |
| 20260502030026 | 8 | 17 | 1.6 | 6.4 | 0.00 | 0.00 | 0.00 | 42 | 1020.4 |
| 20260502025508 | 9 | 2 | 1.6 | 6.4 | 0.00 | 0.00 | 0.00 | 41 | 1020.3 |
| 20260502025008 | 9 | 11 | 1.6 | 4.8 | 0.00 | 0.00 | 0.00 | 40 | 1020.2 |
| 20260502024511 | 9 | 12 | 3.2 | 6.4 | 0.00 | 0.00 | 0.00 | 40 | 1020.2 |
| 20260502024004 | 9 | 11 | 3.2 | 8.0 | 0.00 | 0.00 | 0.00 | 39 | 1020.1 |
| 20260502023507 | 10 | 13 | 4.8 | 8.0 | 0.00 | 0.00 | 0.00 | 39 | 1020.0 |
| 20260502023012 | 10 | 13 | 4.8 | 12.9 | 0.00 | 0.00 | 0.00 | 39 | 1019.9 |
| 20260502022504 | 10 | 14 | 4.8 | 12.9 | 0.00 | 0.00 | 0.00 | 38 | 1020.0 |
| 20260502022003 | 10 | 19 | 4.8 | 12.9 | 0.00 | 0.00 | 0.00 | 39 | 1019.9 |
| 20260502021505 | 10 | 36 | 4.8 | 16.1 | 0.00 | 0.00 | 0.00 | 38 | 1019.8 |
| 20260502021003 | 10 | 21 | 6.4 | 16.1 | 0.00 | 0.00 | 0.00 | 38 | 1019.7 |
| 20260502020504 | 10 | 23 | 4.8 | 14.5 | 0.00 | 0.00 | 0.00 | 38 | 1019.6 |
| 20260502020008 | 10 | 349 | 6.4 | 19.3 | 0.00 | 0.00 | 0.00 | 38 | 1019.5 |
| 20260502015503 | 10 | 15 | 6.4 | 19.3 | 0.00 | 0.00 | 0.00 | 38 | 1019.3 |
| 20260502015005 | 10 | 23 | 4.8 | 12.9 | 0.00 | 0.00 | 0.00 | 38 | 1019.3 |
| 20260502014503 | 10 | 21 | 4.8 | 12.9 | 0.00 | 0.00 | 0.00 | 37 | 1019.3 |
| 20260502014012 | 10 | 1 | 4.8 | 12.9 | 0.00 | 0.00 | 0.00 | 37 | 1019.3 |
| 20260502013502 | 10 | 360 | 3.2 | 11.3 | 0.00 | 0.00 | 0.00 | 37 | 1019.3 |
| 20260502013017 | 11 | 32 | 6.4 | 12.9 | 0.00 | 0.00 | 0.00 | 37 | 1019.3 |
| 20260502012504 | 11 | 15 | 4.8 | 12.9 | 0.00 | 0.00 | 0.00 | 37 | 1019.3 |
| 20260502012004 | 11 | 50 | 8.0 | 17.7 | 0.00 | 0.00 | 0.00 | 37 | 1019.2 |
| 20260502011525 | 11 | 5 | 4.8 | 19.3 | 0.00 | 0.00 | 0.00 | 36 | 1019.2 |
| 20260502011005 | 11 | 358 | 8.0 | 19.3 | 0.00 | 0.00 | 0.00 | 36 | 1019.1 |
| 20260502010504 | 11 | 17 | 9.7 | 20.9 | 0.00 | 0.00 | 0.00 | 35 | 1019.1 |
| 20260502010005 | 11 | 49 | 11.3 | 20.9 | 0.00 | 0.00 | 0.00 | 35 | 1019.0 |
| 20260502005504 | 11 | 28 | 8.0 | 11.3 | 0.00 | 0.00 | 0.00 | 35 | 1018.9 |
| 20260502005003 | 12 | 7 | 4.8 | 20.9 | 0.00 | 0.00 | 0.00 | 34 | 1018.9 |
| 20260502004511 | 12 | 356 | 4.8 | 20.9 | 0.00 | 0.00 | 0.00 | 34 | 1018.8 |
| 20260502004002 | 12 | 331 | 9.7 | 22.5 | 0.00 | 0.00 | 0.00 | 34 | 1018.7 |
| 20260502003502 | 12 | 55 | 14.5 | 22.5 | 0.00 | 0.00 | 0.00 | 33 | 1018.7 |
| 20260502003013 | 12 | 32 | 11.3 | 22.5 | 0.00 | 0.00 | 0.00 | 34 | 1018.6 |
| 20260502002504 | 12 | 9 | 11.3 | 22.5 | 0.00 | 0.00 | 0.00 | 33 | 1018.6 |
| 20260502002010 | 12 | 290 | 8.0 | 27.4 | 0.00 | 0.00 | 0.00 | 32 | 1018.6 |
| 20260502001514 | 13 | 290 | 11.3 | 27.4 | 0.00 | 0.00 | 0.00 | 31 | 1018.7 |
| 20260502001004 | 13 | 331 | 8.0 | 27.4 | 0.00 | 0.00 | 0.00 | 31 | 1018.5 |
| 20260502000506 | 13 | 36 | 14.5 | 27.4 | 0.00 | 0.00 | 0.00 | 32 | 1018.6 |
| 20260502000008 | 13 | 346 | 8.0 | 19.3 | 0.00 | 0.00 | 0.00 | 31 | 1018.6 |
| 20260501235503 | 13 | 94 | 9.7 | 20.9 | 0.00 | 0.00 | 0.00 | 31 | 1018.6 |
| 20260501235003 | 13 | 23 | 9.7 | 22.5 | 0.00 | 0.00 | 0.00 | 32 | 1018.5 |
| 20260501234508 | 13 | 321 | 9.7 | 27.4 | 0.00 | 0.00 | 0.00 | 31 | 1018.5 |
| 20260501234003 | 14 | 52 | 12.9 | 27.4 | 0.00 | 0.00 | 0.00 | 31 | 1018.4 |
| 20260501233503 | 14 | 345 | 12.9 | 22.5 | 0.00 | 0.00 | 0.00 | 31 | 1018.4 |
| 20260501233019 | 13 | 13 | 11.3 | 22.5 | 0.00 | 0.00 | 0.00 | 31 | 1018.4 |
| 20260501232504 | 14 | 340 | 8.0 | 27.4 | 0.00 | 0.00 | 0.00 | 29 | 1018.5 |
| 20260501232004 | 14 | 320 | 9.7 | 22.5 | 0.00 | 0.00 | 0.00 | 31 | 1018.3 |
| 20260501231515 | 14 | 330 | 9.7 | 19.3 | 0.00 | 0.00 | 0.00 | 31 | 1018.4 |
| 20260501231004 | 14 | 8 | 9.7 | 22.5 | 0.00 | 0.00 | 0.00 | 31 | 1018.3 |
| 20260501230506 | 14 | 6 | 4.8 | 27.4 | 0.00 | 0.00 | 0.00 | 30 | 1018.3 |
| 20260501230024 | 14 | 14 | 17.7 | 27.4 | 0.00 | 0.00 | 0.00 | 30 | 1018.3 |
| 20260501225505 | 15 | 296 | 12.9 | 27.4 | 0.00 | 0.00 | 0.00 | 32 | 1018.3 |
| 20260501225010 | 15 | 17 | 8.0 | 20.9 | 0.00 | 0.00 | 0.00 | 30 | 1018.2 |
| 20260501224505 | 15 | 4 | 6.4 | 19.3 | 0.00 | 0.00 | 0.00 | 30 | 1018.2 |
| 20260501224003 | 15 | 310 | 12.9 | 17.7 | 0.00 | 0.00 | 0.00 | 30 | 1018.2 |
| 20260501223504 | 15 | 326 | 9.7 | 22.5 | 0.00 | 0.00 | 0.00 | 31 | 1018.2 |
| 20260501223007 | 15 | 17 | 9.7 | 27.4 | 0.00 | 0.00 | 0.00 | 30 | 1018.3 |
| 20260501222503 | 15 | 336 | 11.3 | 27.4 | 0.00 | 0.00 | 0.00 | 30 | 1018.2 |
| 20260501222004 | 15 | 15 | 8.0 | 27.4 | 0.00 | 0.00 | 0.00 | 33 | 1018.2 |
| 20260501221515 | 15 | 17 | 16.1 | 27.4 | 0.00 | 0.00 | 0.00 | 31 | 1018.2 |
| 20260501221004 | 15 | 311 | 11.3 | 22.5 | 0.00 | 0.00 | 0.00 | 30 | 1018.1 |
| 20260501220506 | 15 | 321 | 9.7 | 29.0 | 0.00 | 0.00 | 0.00 | 31 | 1018.1 |
| 20260501220008 | 15 | 319 | 9.7 | 29.0 | 0.00 | 0.00 | 0.00 | 31 | 1018.2 |
| 20260501215507 | 15 | 18 | 8.0 | 25.7 | 0.00 | 0.00 | 0.00 | 30 | 1018.2 |
| 20260501215005 | 15 | 310 | 12.9 | 25.7 | 0.00 | 0.00 | 0.00 | 30 | 1018.2 |
| 20260501214509 | 15 | 315 | 14.5 | 24.1 | 0.00 | 0.00 | 0.00 | 31 | 1018.2 |
| 20260501214008 | 15 | 304 | 6.4 | 22.5 | 0.00 | 0.00 | 0.00 | 33 | 1018.2 |
| 20260501213504 | 15 | 7 | 12.9 | 22.5 | 0.00 | 0.00 | 0.00 | 31 | 1018.2 |
| 20260501213008 | 15 | 342 | 14.5 | 25.7 | 0.00 | 0.00 | 0.00 | 32 | 1018.2 |
| 20260501212505 | 15 | 309 | 4.8 | 25.7 | 0.00 | 0.00 | 0.00 | 33 | 1018.2 |
| 20260501212005 | 15 | 353 | 14.5 | 27.4 | 0.00 | 0.00 | 0.00 | 33 | 1018.3 |
| 20260501211514 | 15 | 352 | 9.7 | 27.4 | 0.00 | 0.00 | 0.00 | 34 | 1018.4 |
| 20260501211004 | 15 | 306 | 8.0 | 24.1 | 0.00 | 0.00 | 0.00 | 35 | 1018.4 |
| 20260501210504 | 15 | 336 | 12.9 | 25.7 | 0.00 | 0.00 | 0.00 | 36 | 1018.5 |
| 20260501210019 | 15 | 326 | 11.3 | 25.7 | 0.00 | 0.00 | 0.00 | 35 | 1018.5 |
| 20260501205505 | 15 | 313 | 11.3 | 25.7 | 0.00 | 0.00 | 0.00 | 35 | 1018.5 |
| 20260501205005 | 14 | 346 | 8.0 | 30.6 | 0.00 | 0.00 | 0.00 | 35 | 1018.5 |
| 20260501204518 | 15 | 356 | 14.5 | 29.0 | 0.00 | 0.00 | 0.00 | 35 | 1018.6 |
| 20260501204006 | 14 | 30 | 8.0 | 14.5 | 0.00 | 0.00 | 0.00 | 36 | 1018.6 |
| 20260501203506 | 14 | 311 | 4.8 | 20.9 | 0.00 | 0.00 | 0.00 | 37 | 1018.7 |
| 20260501203033 | 14 | 36 | 8.0 | 27.4 | 0.00 | 0.00 | 0.00 | 36 | 1018.7 |
| 20260501202505 | 14 | 9 | 16.1 | 27.4 | 0.00 | 0.00 | 0.00 | 35 | 1018.8 |
| 20260501202004 | 15 | 343 | 9.7 | 19.3 | 0.00 | 0.00 | 0.00 | 35 | 1018.7 |
| 20260501201508 | 14 | 329 | 12.9 | 25.7 | 0.00 | 0.00 | 0.00 | 38 | 1018.9 |
| 20260501201004 | 14 | 287 | 17.7 | 27.4 | 0.00 | 0.00 | 0.00 | 36 | 1018.9 |
| 20260501200505 | 15 | 13 | 11.3 | 27.4 | 0.00 | 0.00 | 0.00 | 40 | 1018.9 |
| 20260501200012 | 15 | 300 | 11.3 | 25.7 | 0.00 | 0.00 | 0.00 | 40 | 1018.9 |
| 20260501195508 | 14 | 26 | 12.9 | 25.7 | 0.00 | 0.00 | 0.00 | 40 | 1018.9 |
| 20260501195008 | 14 | 300 | 9.7 | 22.5 | 0.00 | 0.00 | 0.00 | 39 | 1018.8 |
| 20260501194517 | 14 | 18 | 11.3 | 24.1 | 0.00 | 0.00 | 0.00 | 39 | 1018.8 |
| 20260501194005 | 13 | 11 | 11.3 | 24.1 | 0.00 | 0.00 | 0.00 | 41 | 1018.8 |
| 20260501193506 | 13 | 333 | 16.1 | 29.0 | 0.00 | 0.00 | 0.00 | 40 | 1018.9 |
| 20260501193037 | 13 | 316 | 11.3 | 29.0 | 0.00 | 0.00 | 0.00 | 38 | 1018.8 |
| 20260501192508 | 13 | 318 | 11.3 | 20.9 | 0.00 | 0.00 | 0.00 | 39 | 1018.8 |
| 20260501192003 | 13 | 331 | 4.8 | 25.7 | 0.00 | 0.00 | 0.00 | 40 | 1018.7 |
| 20260501191524 | 13 | 301 | 11.3 | 25.7 | 0.00 | 0.00 | 0.00 | 42 | 1018.8 |
| 20260501191003 | 13 | 329 | 8.0 | 25.7 | 0.00 | 0.00 | 0.00 | 41 | 1018.8 |
| 20260501190502 | 13 | 66 | 14.5 | 25.7 | 0.00 | 0.00 | 0.00 | 42 | 1018.8 |
| 20260501190014 | 13 | 317 | 11.3 | 25.7 | 0.00 | 0.00 | 0.00 | 41 | 1018.8 |
| 20260501185506 | 13 | 316 | 14.5 | 25.7 | 0.00 | 0.00 | 0.00 | 43 | 1018.8 |
| 20260501185007 | 13 | 328 | 6.4 | 25.7 | 0.00 | 0.00 | 0.00 | 41 | 1018.8 |
| 20260501184524 | 13 | 298 | 9.7 | 24.1 | 0.00 | 0.00 | 0.00 | 43 | 1018.8 |
| 20260501184007 | 12 | 21 | 16.1 | 27.4 | 0.00 | 0.00 | 0.00 | 43 | 1018.8 |
| 20260501183510 | 13 | 339 | 14.5 | 27.4 | 0.00 | 0.00 | 0.00 | 43 | 1018.8 |
| 20260501183023 | 13 | 45 | 11.3 | 25.7 | 0.00 | 0.00 | 0.00 | 43 | 1018.9 |
| 20260501182507 | 13 | 7 | 16.1 | 25.7 | 0.00 | 0.00 | 0.00 | 44 | 1018.9 |
| 20260501182012 | 13 | 323 | 16.1 | 25.7 | 0.00 | 0.00 | 0.00 | 46 | 1018.8 |
| 20260501181535 | 14 | 352 | 11.3 | 33.8 | 0.00 | 0.00 | 0.00 | 1018.9 | |
| 20260501181003 | 14 | 3 | 16.1 | 33.8 | 0.00 | 0.00 | 0.00 | 1018.9 | |
| 20260501180510 | 13 | 31 | 11.3 | 29.0 | 0.00 | 0.00 | 0.00 | 1018.8 | |
| 20260501180014 | 13 | 19 | 8.0 | 27.4 | 0.00 | 0.00 | 0.00 | 48 | 1018.9 |
| 20260501175502 | 13 | 329 | 11.3 | 24.1 | 0.00 | 0.00 | 0.00 | 48 | 1019.0 |
| 20260501175008 | 13 | 321 | 11.3 | 25.7 | 0.00 | 0.00 | 0.00 | 48 | 1018.9 |
| 20260501174514 | 13 | 40 | 14.5 | 29.0 | 0.00 | 0.00 | 0.00 | 46 | 1018.9 |
| 20260501174010 | 13 | 354 | 11.3 | 29.0 | 0.00 | 0.00 | 0.00 | 48 | 1019.0 |
| 20260501173507 | 13 | 342 | 16.1 | 25.7 | 0.00 | 0.00 | 0.00 | 47 | 1019.0 |
| 20260501173011 | 13 | 315 | 11.3 | 29.0 | 0.00 | 0.00 | 0.00 | 49 | 1019.1 |
| 20260501172503 | 13 | 33 | 17.7 | 25.7 | 0.00 | 0.00 | 0.00 | 49 | 1019.1 |
| 20260501172006 | 13 | 348 | 12.9 | 25.7 | 0.00 | 0.00 | 0.00 | 46 | 1019.1 |
| 20260501171504 | 12 | 358 | 12.9 | 25.7 | 0.00 | 0.00 | 0.00 | 48 | 1019.2 |
| 20260501171003 | 12 | 308 | 11.3 | 27.4 | 0.00 | 0.00 | 0.00 | 50 | 1019.1 |
| 20260501170503 | 12 | 42 | 12.9 | 27.4 | 0.00 | 0.00 | 0.00 | 48 | 1019.2 |
| 20260501170008 | 13 | 44 | 12.9 | 24.1 | 0.00 | 0.00 | 0.00 | 51 | 1019.1 |
| 20260501165506 | 13 | 38 | 12.9 | 32.2 | 0.00 | 0.00 | 0.00 | 48 | 1019.1 |
| 20260501165004 | 12 | 348 | 11.3 | 32.2 | 0.00 | 0.00 | 0.00 | 48 | 1019.1 |
| 20260501164507 | 13 | 337 | 16.1 | 29.0 | 0.00 | 0.00 | 0.00 | 49 | 1019.1 |
| 20260501164008 | 13 | 303 | 14.5 | 29.0 | 0.00 | 0.00 | 0.00 | 49 | 1019.2 |
| 20260501163503 | 13 | 327 | 11.3 | 27.4 | 0.00 | 0.00 | 0.00 | 51 | 1019.1 |
| 20260501163033 | 12 | 44 | 12.9 | 27.4 | 0.00 | 0.00 | 0.00 | 51 | 1019.1 |
| 20260501162506 | 13 | 359 | 12.9 | 27.4 | 0.00 | 0.00 | 0.00 | 51 | 1019.1 |
| 20260501162003 | 12 | 19 | 12.9 | 27.4 | 0.00 | 0.00 | 0.00 | 51 | 1019.1 |
| 20260501161520 | 12 | 320 | 12.9 | 24.1 | 0.00 | 0.00 | 0.00 | 54 | 1019.0 |
| 20260501161005 | 12 | 327 | 12.9 | 27.4 | 0.00 | 0.00 | 0.00 | 54 | 1019.0 |
| 20260501160502 | 12 | 47 | 12.9 | 27.4 | 0.00 | 0.00 | 0.00 | 51 | 1019.0 |
| 20260501160004 | 12 | 31 | 11.3 | 22.5 | 0.00 | 0.00 | 0.00 | 56 | 1019.0 |
| 20260501155502 | 12 | 302 | 11.3 | 22.5 | 0.00 | 0.00 | 0.00 | 56 | 1019.0 |
| 20260501155005 | 12 | 314 | 9.7 | 22.5 | 0.00 | 0.00 | 0.00 | 56 | 1019.0 |
| 20260501154514 | 11 | 348 | 12.9 | 27.4 | 0.00 | 0.00 | 0.00 | 55 | 1018.9 |
| 20260501154005 | 11 | 309 | 11.3 | 27.4 | 0.00 | 0.00 | 0.00 | 56 | 1018.9 |
| 20260501153503 | 11 | 328 | 11.3 | 19.3 | 0.00 | 0.00 | 0.00 | 57 | 1018.9 |
| 20260501153012 | 11 | 325 | 11.3 | 19.3 | 0.00 | 0.00 | 0.00 | 56 | 1018.9 |
| 20260501152504 | 11 | 329 | 11.3 | 17.7 | 0.00 | 0.00 | 0.00 | 55 | 1018.8 |